UTAK

Turkmenbashi International Airport

Airport
ICAO code
UTAK
IATA Code
KRW
Summary
ICAO Region
EUR
ICAO Territory
Location

Turkmenbashi, Turkmenistan,

Serving
Turkmenbashi
Elevation
282 ft
Coordinates
40° 1' 60" N , 52° 58' 60" E
Metar
UTAK 180000Z 32012KT 9999 BKN014 13/10 Q1015 R34L/29//50 NOSIG

Runways

Designator Length Width Surface Rops
16/34 2500 44 CON No/No

Airport map

Aerial View

SKYbrary Partners:

Safety knowledge contributed by: